Time;durP1;ratioP1;P1;durP2;ratioP2;P2;SDS_P1;SDS_P2;PMS_P1;PMS_P2;Temp;Humidity;BMP_temperature;BMP_pressure;BME280_temperature;BME280_humidity;BME280_pressure;Samples;Min_cycle;Max_cycle;Signal;HPM_P1;HPM_P2
2022/07/25 00:00:35;;;;;;;7.72;2.15;;;;;;;21.81;100.00;99879.53;5049114;28;20024;-81
2022/07/25 00:03:00;;;;;;;9.25;2.30;;;;;;;21.81;100.00;99890.22;5049368;28;20368;-81
2022/07/25 00:05:26;;;;;;;7.55;2.45;;;;;;;21.59;100.00;99880.34;5049508;28;20158;-81
2022/07/25 00:07:51;;;;;;;8.27;2.45;;;;;;;21.85;100.00;99878.94;5049707;28;20027;-81
2022/07/25 00:10:16;;;;;;;8.07;2.10;;;;;;;21.90;100.00;99867.69;5049323;28;20516;-81
2022/07/25 00:12:42;;;;;;;10.18;2.65;;;;;;;21.94;100.00;99860.97;5049299;28;20086;-81
2022/07/25 00:15:08;;;;;;;9.60;2.70;;;;;;;21.51;100.00;99877.78;5049244;28;20395;-81
2022/07/25 00:17:34;;;;;;;7.13;2.92;;;;;;;21.62;100.00;99879.13;5049308;28;20048;-81
2022/07/25 00:20:00;;;;;;;9.20;2.10;;;;;;;21.85;100.00;99876.28;5049228;28;20058;-81
2022/07/25 00:22:25;;;;;;;11.85;3.40;;;;;;;21.90;100.00;99875.69;5049033;28;20029;-81
2022/07/25 00:24:50;;;;;;;11.60;2.38;;;;;;;22.00;100.00;99870.88;5049320;28;20488;-81
2022/07/25 00:27:16;;;;;;;8.98;2.80;;;;;;;21.92;100.00;99862.97;5049138;28;20048;-81
2022/07/25 00:29:41;;;;;;;6.80;2.10;;;;;;;22.10;100.00;99859.88;5048979;28;20060;-81
2022/07/25 00:32:06;;;;;;;6.85;2.38;;;;;;;22.06;100.00;99848.72;5048869;28;20025;-81
2022/07/25 00:34:32;;;;;;;7.30;2.45;;;;;;;21.77;100.00;99853.19;5048894;27;20108;-81
2022/07/25 00:36:57;;;;;;;12.63;3.03;;;;;;;21.78;100.00;99852.19;5049032;28;20032;-81
2022/07/25 00:39:23;;;;;;;11.35;3.28;;;;;;;21.85;100.00;99852.22;5048815;28;20052;-81
2022/07/25 00:41:48;;;;;;;7.28;2.70;;;;;;;21.87;100.00;99846.69;5047623;28;20036;-81
2022/07/25 00:44:28;;;;;;;9.60;2.22;;;;;;;21.82;100.00;99857.13;5049130;28;20093;-81
2022/07/25 00:46:54;;;;;;;12.85;3.15;;;;;;;21.90;100.00;99848.97;5048959;28;20029;-81
2022/07/25 00:49:19;;;;;;;12.30;3.60;;;;;;;21.68;100.00;99850.81;5048803;28;20073;-81
2022/07/25 00:51:45;;;;;;;8.05;2.65;;;;;;;21.80;100.00;99843.97;5048881;28;20021;-81
2022/07/25 00:54:11;;;;;;;9.05;2.83;;;;;;;21.59;100.00;99837.59;5048525;28;20033;-81
2022/07/25 00:56:37;;;;;;;12.65;3.80;;;;;;;21.81;100.00;99834.09;5048645;28;20093;-81
2022/07/25 00:59:03;;;;;;;9.10;2.60;;;;;;;21.73;100.00;99833.22;5048594;28;20210;-81
2022/07/25 01:01:28;;;;;;;14.60;3.13;;;;;;;21.82;100.00;99833.91;5048637;28;20518;-81
2022/07/25 01:03:54;;;;;;;7.43;2.88;;;;;;;21.77;100.00;99833.66;5051731;28;20025;-81
2022/07/25 01:06:20;;;;;;;14.18;2.55;;;;;;;21.77;100.00;99839.00;5052455;28;20029;-81
2022/07/25 01:08:46;;;;;;;10.10;2.80;;;;;;;21.68;100.00;99840.13;5052142;28;20033;-81
2022/07/25 01:11:12;;;;;;;9.52;2.92;;;;;;;21.83;100.00;99838.22;5052213;28;20053;-81
2022/07/25 01:13:37;;;;;;;14.50;3.80;;;;;;;21.57;100.00;99841.47;5052520;28;20112;-81
2022/07/25 01:16:03;;;;;;;10.40;3.50;;;;;;;21.73;100.00;99838.56;5051805;28;20077;-81
2022/07/25 01:18:28;;;;;;;9.05;3.58;;;;;;;21.37;100.00;99820.69;5052084;28;20032;-81
2022/07/25 01:20:54;;;;;;;11.60;3.03;;;;;;;21.63;100.00;99819.34;5052061;28;20347;-81
2022/07/25 01:23:19;;;;;;;10.48;2.85;;;;;;;21.69;100.00;99826.59;5052246;28;20071;-81
2022/07/25 01:25:44;;;;;;;9.20;2.53;;;;;;;21.51;100.00;99823.53;5050478;28;20021;-82
2022/07/25 01:28:10;;;;;;;10.35;3.15;;;;;;;21.36;100.00;99832.38;5051789;28;20166;-81
2022/07/25 01:30:35;;;;;;;16.23;3.58;;;;;;;21.28;100.00;99824.47;5051681;28;20052;-81
2022/07/25 01:33:01;;;;;;;16.35;3.53;;;;;;;21.14;100.00;99831.50;5051779;28;20051;-81
2022/07/25 01:35:26;;;;;;;10.55;3.50;;;;;;;21.43;100.00;99823.63;5050347;28;20036;-82
2022/07/25 01:37:52;;;;;;;11.88;3.35;;;;;;;21.50;100.00;99833.38;5051907;28;20021;-82
2022/07/25 01:40:17;;;;;;;12.23;3.13;;;;;;;21.41;100.00;99831.00;5051521;28;20062;-81
2022/07/25 01:42:43;;;;;;;12.98;3.67;;;;;;;21.32;100.00;99823.09;5051742;28;20025;-81
2022/07/25 01:45:09;;;;;;;12.57;3.20;;;;;;;21.41;100.00;99823.00;5051698;28;20033;-81
2022/07/25 01:47:35;;;;;;;10.43;3.33;;;;;;;21.26;100.00;99831.84;5051407;28;20474;-81
2022/07/25 01:50:00;;;;;;;9.20;3.13;;;;;;;21.07;100.00;99838.63;5051547;28;20025;-81
2022/07/25 01:52:25;;;;;;;12.65;3.60;;;;;;;21.29;100.00;99836.00;5051683;28;20024;-81
2022/07/25 01:54:51;;;;;;;10.00;3.08;;;;;;;20.97;100.00;99833.59;5051420;28;20025;-81
2022/07/25 01:57:16;;;;;;;11.13;3.22;;;;;;;21.22;100.00;99829.75;5051402;28;20033;-81
2022/07/25 01:59:41;;;;;;;11.02;3.10;;;;;;;21.27;100.00;99827.34;5050031;28;20017;-81
2022/07/25 02:02:08;;;;;;;9.73;2.38;;;;;;;20.96;100.00;99841.75;5051309;28;20086;-83
2022/07/25 02:04:34;;;;;;;13.00;3.20;;;;;;;20.74;100.00;99833.69;5051436;28;20032;-81
2022/07/25 02:07:00;;;;;;;14.18;2.88;;;;;;;20.89;100.00;99841.69;5051434;28;20040;-81
2022/07/25 02:09:26;;;;;;;10.45;2.63;;;;;;;20.59;100.00;99840.84;5050030;28;20021;-81
2022/07/25 02:11:51;;;;;;;13.10;3.10;;;;;;;20.90;100.00;99835.31;5050991;28;20379;-81
2022/07/25 02:14:16;;;;;;;5.03;1.90;;;;;;;20.97;100.00;99841.59;5050132;28;20025;-81
2022/07/25 02:16:42;;;;;;;9.45;1.73;;;;;;;20.88;100.00;99832.00;5051138;28;20025;-81
2022/07/25 02:19:07;;;;;;;7.20;1.90;;;;;;;21.06;100.00;99830.81;5051103;28;20040;-81
2022/07/25 02:21:33;;;;;;;10.05;2.28;;;;;;;21.11;100.00;99821.22;5051031;28;20021;-81
2022/07/25 02:23:58;;;;;;;9.25;2.20;;;;;;;20.87;100.00;99817.00;5051221;28;20104;-81
2022/07/25 02:26:23;;;;;;;5.38;1.77;;;;;;;21.11;100.00;99817.72;5051187;28;20113;-81
2022/07/25 02:28:49;;;;;;;8.07;1.85;;;;;;;21.04;100.00;99816.81;5050934;28;20489;-81
2022/07/25 02:31:15;;;;;;;7.07;2.22;;;;;;;21.02;100.00;99810.84;5050994;28;20025;-81
2022/07/25 02:33:41;;;;;;;8.32;2.17;;;;;;;21.08;100.00;99813.59;5050852;28;20143;-81
2022/07/25 02:36:07;;;;;;;8.70;3.15;;;;;;;20.65;100.00;99810.75;5050793;28;20033;-81
2022/07/25 02:38:32;;;;;;;8.98;1.92;;;;;;;21.11;100.00;99804.34;5050644;28;20021;-81
2022/07/25 02:40:57;;;;;;;11.90;2.80;;;;;;;20.93;100.00;99800.28;5050862;28;20025;-81
2022/07/25 02:43:23;;;;;;;5.70;1.95;;;;;;;20.91;100.00;99796.97;5050473;28;20116;-81
2022/07/25 02:45:48;;;;;;;10.40;2.70;;;;;;;20.83;100.00;99805.06;5050639;28;20025;-81
2022/07/25 02:48:13;;;;;;;7.70;2.10;;;;;;;20.96;100.00;99802.56;5050546;28;20047;-81
2022/07/25 02:50:39;;;;;;;12.20;2.08;;;;;;;20.95;100.00;99797.41;5050773;28;20486;-81
2022/07/25 02:53:04;;;;;;;7.72;2.05;;;;;;;21.03;100.00;99808.00;5050537;28;20489;-81
2022/07/25 02:55:30;;;;;;;4.00;1.60;;;;;;;20.86;100.00;99803.88;5050375;28;20477;-81
2022/07/25 02:57:56;;;;;;;3.08;1.27;;;;;;;20.69;100.00;99803.22;5050539;28;20228;-81
2022/07/25 03:00:22;;;;;;;7.15;1.83;;;;;;;20.69;100.00;99813.91;5050395;28;20052;-81
2022/07/25 03:02:47;;;;;;;4.63;1.67;;;;;;;20.55;100.00;99807.53;5050523;28;20367;-81
2022/07/25 03:05:14;;;;;;;4.60;2.05;;;;;;;20.72;100.00;99802.88;5050456;28;20052;-81
2022/07/25 03:07:40;;;;;;;12.32;2.95;;;;;;;20.81;100.00;99801.75;5050363;28;20090;-81
2022/07/25 03:10:07;;;;;;;4.40;1.20;;;;;;;20.57;100.00;99802.84;5050081;28;20040;-81
2022/07/25 03:12:33;;;;;;;9.82;1.65;;;;;;;20.47;100.00;99791.63;5050215;28;20486;-81
2022/07/25 03:14:59;;;;;;;5.30;1.52;;;;;;;20.68;100.00;99790.91;5050312;28;20086;-81
2022/07/25 03:17:25;;;;;;;10.75;1.63;;;;;;;20.77;100.00;99792.44;5050158;28;20077;-81
2022/07/25 03:19:50;;;;;;;6.53;1.15;;;;;;;20.66;100.00;99783.09;5050132;28;20025;-81
2022/07/25 03:22:16;;;;;;;7.30;1.52;;;;;;;20.81;99.94;99785.72;5050058;28;20501;-81
2022/07/25 03:24:42;;;;;;;5.30;0.98;;;;;;;20.73;100.00;99784.00;5049692;28;20482;-81
2022/07/25 03:27:07;;;;;;;7.97;2.53;;;;;;;20.74;100.00;99784.84;5050019;28;20432;-81
2022/07/25 03:29:33;;;;;;;5.88;1.60;;;;;;;20.73;100.00;99785.84;5049977;28;20466;-81
2022/07/25 03:31:59;;;;;;;5.55;1.25;;;;;;;20.74;99.86;99787.50;5048531;28;20078;-81
2022/07/25 03:34:25;;;;;;;5.53;1.38;;;;;;;20.35;100.00;99781.41;5049730;28;20025;-81
2022/07/25 03:36:50;;;;;;;5.75;1.08;;;;;;;20.59;100.00;99787.50;5049812;28;20104;-81
2022/07/25 03:39:15;;;;;;;5.70;1.17;;;;;;;20.87;100.00;99784.16;5048460;28;20063;-81
2022/07/25 03:41:41;;;;;;;6.18;1.60;;;;;;;20.87;99.78;99782.31;5049664;28;20060;-81
2022/07/25 03:44:06;;;;;;;4.63;0.85;;;;;;;21.05;99.33;99781.94;5049664;28;20053;-81
2022/07/25 03:46:32;;;;;;;6.65;1.30;;;;;;;20.62;100.00;99796.97;5049723;28;20427;-81
2022/07/25 03:48:57;;;;;;;6.13;1.60;;;;;;;20.79;99.78;99795.75;5049571;28;20032;-81
2022/07/25 03:51:23;;;;;;;9.27;1.50;;;;;;;20.73;100.00;99788.50;5049548;28;20044;-81
2022/07/25 03:54:00;;;;;;;7.35;1.45;;;;;;;20.83;100.00;99794.38;5049673;28;20438;-81
2022/07/25 03:56:27;;;;;;;4.35;1.13;;;;;;;20.81;100.00;99796.41;5049451;28;20029;-81
2022/07/25 03:58:52;;;;;;;9.13;1.80;;;;;;;20.34;100.00;99805.56;5049421;28;20025;-81
2022/07/25 04:01:18;;;;;;;7.50;1.33;;;;;;;20.35;100.00;99812.56;5048437;28;20586;-81
2022/07/25 04:03:43;;;;;;;8.15;1.67;;;;;;;20.36;100.00;99814.25;5049606;28;20032;-81
2022/07/25 04:06:08;;;;;;;6.60;1.38;;;;;;;20.13;100.00;99811.63;5048298;28;20398;-81
2022/07/25 04:08:33;;;;;;;3.42;0.95;;;;;;;20.27;100.00;99815.31;5049446;28;20469;-81
2022/07/25 04:10:59;;;;;;;10.05;1.20;;;;;;;20.04;100.00;99821.50;5049274;28;20355;-81
2022/07/25 04:13:24;;;;;;;4.00;1.08;;;;;;;19.82;100.00;99807.22;5049548;28;20063;-82
2022/07/25 04:15:50;;;;;;;4.57;1.60;;;;;;;19.63;100.00;99797.84;5049613;28;20029;-81
2022/07/25 04:18:15;;;;;;;8.05;1.50;;;;;;;19.79;100.00;99797.75;5047239;28;20064;-81
2022/07/25 04:20:41;;;;;;;5.45;1.20;;;;;;;20.03;100.00;99798.56;5046790;27;20538;-81
2022/07/25 04:23:06;;;;;;;3.75;1.30;;;;;;;20.06;100.00;99800.84;5049239;28;20107;-81
2022/07/25 04:25:31;;;;;;;7.38;1.30;;;;;;;20.04;100.00;99799.38;5049490;28;20512;-81
2022/07/25 04:27:56;;;;;;;4.95;1.30;;;;;;;19.83;100.00;99798.22;5047913;28;20374;-81
2022/07/25 04:30:22;;;;;;;6.22;1.42;;;;;;;19.97;100.00;99804.59;5049033;28;20470;-81
2022/07/25 04:32:47;;;;;;;5.13;1.35;;;;;;;19.90;100.00;99798.31;5048900;28;20058;-81
2022/07/25 04:35:12;;;;;;;4.25;1.77;;;;;;;19.84;100.00;99794.53;5048916;28;20501;-82
2022/07/25 04:37:38;;;;;;;8.18;2.88;;;;;;;19.87;100.00;99793.38;5048276;28;20111;-81
2022/07/25 04:40:04;;;;;;;5.40;1.60;;;;;;;19.78;100.00;99797.94;5047470;28;20477;-82
2022/07/25 04:42:30;;;;;;;9.15;2.00;;;;;;;19.77;100.00;99794.44;5049082;28;20037;-81
2022/07/25 04:44:55;;;;;;;4.38;1.20;;;;;;;19.80;100.00;99802.06;5049041;28;20033;-81
2022/07/25 04:47:21;;;;;;;5.60;1.20;;;;;;;19.64;100.00;99804.00;5049139;28;20488;-81
2022/07/25 04:49:46;;;;;;;6.35;1.60;;;;;;;19.85;100.00;99798.88;5049219;28;20029;-81
2022/07/25 04:52:11;;;;;;;8.18;1.85;;;;;;;19.69;100.00;99805.13;5048721;28;20108;-81
2022/07/25 04:54:37;;;;;;;4.65;1.30;;;;;;;19.85;100.00;99804.22;5049046;28;20134;-82
2022/07/25 04:57:04;;;;;;;7.00;1.63;;;;;;;19.92;100.00;99802.47;5049092;28;20048;-81
2022/07/25 04:59:30;;;;;;;9.65;1.65;;;;;;;19.62;100.00;99798.84;5048581;28;20355;-82
2022/07/25 05:01:55;;;;;;;6.90;1.48;;;;;;;19.88;100.00;99805.69;5048830;28;20078;-81
2022/07/25 05:04:20;;;;;;;6.72;1.73;;;;;;;19.84;100.00;99801.72;5048610;28;20033;-81
2022/07/25 05:06:46;;;;;;;6.40;1.02;;;;;;;19.73;100.00;99806.47;5048902;28;20107;-81
2022/07/25 05:09:11;;;;;;;7.03;1.38;;;;;;;19.96;100.00;99802.94;5048907;28;20057;-81
2022/07/25 05:11:36;;;;;;;4.15;1.38;;;;;;;20.06;100.00;99802.69;5048946;28;20071;-81
2022/07/25 05:14:02;;;;;;;7.88;1.45;;;;;;;20.14;100.00;99802.59;5048370;28;20053;-81
2022/07/25 05:16:27;;;;;;;5.32;1.10;;;;;;;19.83;100.00;99797.38;5048649;28;20052;-81
2022/07/25 05:18:52;;;;;;;5.68;1.30;;;;;;;19.75;100.00;99788.47;5048346;28;20029;-81
2022/07/25 05:21:18;;;;;;;6.70;1.00;;;;;;;19.90;100.00;99799.16;5048558;28;20029;-81
2022/07/25 05:23:43;;;;;;;4.50;1.25;;;;;;;19.92;100.00;99801.66;5047097;28;20073;-81
2022/07/25 05:26:08;;;;;;;6.35;1.35;;;;;;;19.68;100.00;99795.47;5048764;28;20081;-81
2022/07/25 05:28:34;;;;;;;5.90;1.10;;;;;;;19.87;100.00;99804.03;5048498;28;20058;-82
2022/07/25 05:31:00;;;;;;;7.60;1.10;;;;;;;19.85;100.00;99796.22;5048561;28;20389;-82
2022/07/25 05:33:25;;;;;;;5.97;1.17;;;;;;;20.09;100.00;99808.50;5048284;28;20029;-81
2022/07/25 05:35:51;;;;;;;5.90;1.48;;;;;;;20.09;100.00;99808.50;5048114;28;20036;-81
2022/07/25 05:38:16;;;;;;;6.65;1.17;;;;;;;20.15;100.00;99802.44;5048197;28;20364;-81
2022/07/25 05:40:42;;;;;;;7.88;0.90;;;;;;;19.94;100.00;99810.28;5048196;28;20017;-81
2022/07/25 05:43:08;;;;;;;4.95;0.85;;;;;;;20.05;100.00;99812.53;5048335;28;20107;-81
2022/07/25 05:45:33;;;;;;;7.72;1.40;;;;;;;19.87;100.00;99809.38;5048384;28;20021;-81
2022/07/25 05:47:59;;;;;;;9.20;0.93;;;;;;;19.53;100.00;99810.56;5048805;28;20538;-81
2022/07/25 05:50:24;;;;;;;3.70;0.80;;;;;;;20.07;100.00;99815.84;5050203;28;20025;-81
2022/07/25 05:52:49;;;;;;;8.00;0.90;;;;;;;20.09;100.00;99821.81;5051618;28;20162;-81
2022/07/25 05:55:16;;;;;;;5.13;1.02;;;;;;;20.14;100.00;99811.44;5050208;28;20033;-81
2022/07/25 05:57:41;;;;;;;4.85;0.93;;;;;;;20.21;100.00;99817.69;5051540;28;20032;-82
2022/07/25 06:00:08;;;;;;;8.98;1.23;;;;;;;20.18;100.00;99818.06;5051603;28;20048;-81
2022/07/25 06:02:33;;;;;;;6.05;1.05;;;;;;;20.38;100.00;99823.72;5050073;28;20025;-81
2022/07/25 06:04:58;;;;;;;7.22;1.25;;;;;;;19.88;100.00;99811.81;5050484;28;20085;-81
2022/07/25 06:07:24;;;;;;;5.85;0.80;;;;;;;19.61;100.00;99824.66;5051644;28;20056;-81
2022/07/25 06:09:49;;;;;;;4.32;1.17;;;;;;;20.17;100.00;99807.59;5051397;28;20462;-81
2022/07/25 06:12:15;;;;;;;8.63;0.95;;;;;;;20.46;100.00;99819.28;5051291;28;20044;-81
2022/07/25 06:14:40;;;;;;;3.58;1.00;;;;;;;20.86;100.00;99826.03;5051142;28;20044;-81
2022/07/25 06:17:05;;;;;;;11.73;1.98;;;;;;;20.92;100.00;99825.28;5051451;28;20050;-81
2022/07/25 06:19:31;;;;;;;6.32;0.90;;;;;;;20.39;100.00;99820.00;5051219;28;20446;-81
2022/07/25 06:21:56;;;;;;;5.55;1.02;;;;;;;20.73;100.00;99816.00;5051062;28;20100;-82
2022/07/25 06:24:21;;;;;;;7.47;1.30;;;;;;;20.79;100.00;99819.78;5051075;28;20105;-81
2022/07/25 06:26:47;;;;;;;5.40;1.17;;;;;;;21.34;100.00;99829.06;5049562;28;20408;-81
2022/07/25 06:29:12;;;;;;;3.70;1.10;;;;;;;21.14;100.00;99828.84;5051177;28;20424;-81
2022/07/25 06:31:37;;;;;;;4.07;0.77;;;;;;;21.45;99.87;99824.31;5051077;28;20428;-81
2022/07/25 06:34:03;;;;;;;4.68;0.82;;;;;;;21.86;97.28;99826.31;5050882;28;20051;-81
2022/07/25 06:36:28;;;;;;;6.63;0.82;;;;;;;21.50;98.06;99832.56;5050664;28;20367;-81
2022/07/25 06:38:53;;;;;;;5.05;0.80;;;;;;;21.48;98.71;99830.06;5050662;28;20066;-81
2022/07/25 06:41:19;;;;;;;4.28;1.10;;;;;;;21.41;99.59;99841.69;5049641;28;20533;-81
2022/07/25 06:43:44;;;;;;;5.40;0.77;;;;;;;21.42;99.20;99835.31;5050857;28;20029;-81
2022/07/25 06:46:09;;;;;;;5.43;0.80;;;;;;;21.76;97.11;99837.34;5050727;28;20036;-81
2022/07/25 06:48:35;;;;;;;6.35;0.73;;;;;;;21.31;98.81;99828.63;5050927;28;20063;-81
2022/07/25 06:51:00;;;;;;;5.35;0.77;;;;;;;20.98;100.00;99835.22;5050588;28;20021;-81
2022/07/25 06:53:26;;;;;;;5.35;0.60;;;;;;;21.13;100.00;99839.69;5050712;28;20021;-81
2022/07/25 06:55:51;;;;;;;8.02;1.27;;;;;;;20.96;100.00;99839.91;5050739;28;20509;-81
2022/07/25 06:58:16;;;;;;;4.07;0.73;;;;;;;21.20;99.93;99827.28;5050694;28;20104;-81
2022/07/25 07:00:42;;;;;;;4.85;1.02;;;;;;;21.41;100.00;99833.69;5050068;28;20021;-81
2022/07/25 07:03:07;;;;;;;3.78;0.98;;;;;;;20.89;99.80;99825.69;5050616;28;20032;-81
2022/07/25 07:05:35;;;;;;;2.83;0.57;;;;;;;21.82;97.98;99822.38;5050570;28;20108;-81
2022/07/25 07:08:01;;;;;;;6.70;1.48;;;;;;;21.82;97.69;99833.91;5050577;28;20390;-81
2022/07/25 07:10:27;;;;;;;6.57;1.42;;;;;;;22.07;96.31;99828.97;5050574;28;20033;-81
2022/07/25 07:13:09;;;;;;;10.23;1.00;;;;;;;22.79;93.77;99832.38;5050441;28;20331;-81
2022/07/25 07:15:35;;;;;;;5.57;0.80;;;;;;;22.72;93.50;99826.16;5050104;28;20128;-81
2022/07/25 07:18:00;;;;;;;3.20;0.85;;;;;;;22.86;90.30;99830.53;5050251;28;20037;-81
2022/07/25 07:20:26;;;;;;;3.28;0.98;;;;;;;23.03;89.15;99839.13;5050076;28;20101;-81
2022/07/25 07:22:51;;;;;;;6.68;1.05;;;;;;;22.66;92.14;99846.50;5050298;28;20478;-82
2022/07/25 07:25:18;;;;;;;3.97;0.70;;;;;;;21.71;95.83;99845.09;5050299;28;20033;-82
2022/07/25 07:27:44;;;;;;;4.97;0.88;;;;;;;22.06;96.98;99853.22;5050374;28;20445;-82
2022/07/25 07:30:10;;;;;;;2.70;0.68;;;;;;;21.89;97.23;99848.16;5049985;28;20056;-82
2022/07/25 07:32:36;;;;;;;4.18;0.90;;;;;;;21.61;100.00;99855.28;5050015;28;20479;-82
2022/07/25 07:35:01;;;;;;;4.50;1.02;;;;;;;21.74;100.00;99858.91;5049938;28;20085;-82
2022/07/25 07:37:27;;;;;;;5.40;1.00;;;;;;;21.40;100.00;99872.88;5049469;28;20469;-82
2022/07/25 07:39:52;;;;;;;6.60;1.10;;;;;;;21.28;100.00;99875.22;5049716;28;20021;-82
2022/07/25 07:42:17;;;;;;;6.40;0.98;;;;;;;21.11;100.00;99882.63;5049856;28;20025;-82
2022/07/25 07:44:43;;;;;;;3.28;0.80;;;;;;;20.68;100.00;99881.63;5051061;28;20474;-82
2022/07/25 07:47:08;;;;;;;5.68;1.33;;;;;;;21.21;100.00;99877.00;5050584;28;20493;-82
2022/07/25 07:49:34;;;;;;;7.57;0.88;;;;;;;21.26;100.00;99879.91;5049723;28;20064;-82
2022/07/25 07:51:59;;;;;;;4.85;0.90;;;;;;;21.25;100.00;99888.97;5049803;28;20036;-82
2022/07/25 07:57:08;;;;;;;5.07;1.00;;;;;;;21.02;100.00;99901.59;5049594;28;20090;-82
2022/07/25 07:59:33;;;;;;;8.40;1.48;;;;;;;21.15;100.00;99899.09;5049500;28;20025;-82
2022/07/25 08:01:59;;;;;;;4.05;1.08;;;;;;;21.56;100.00;99901.25;5049427;28;20028;-82
2022/07/25 08:04:24;;;;;;;3.28;0.93;;;;;;;21.69;100.00;99893.38;5049454;28;20386;-82
2022/07/25 08:06:49;;;;;;;3.78;0.88;;;;;;;21.70;100.00;99889.72;5049468;28;20494;-82
2022/07/25 08:09:15;;;;;;;4.93;0.80;;;;;;;22.06;100.00;99898.66;5049705;28;20493;-82
2022/07/25 08:11:40;;;;;;;4.72;1.00;;;;;;;21.89;100.00;99916.81;5048511;28;20040;-82
2022/07/25 08:14:05;;;;;;;3.60;0.93;;;;;;;21.78;100.00;99912.78;5049738;28;20500;-82
2022/07/25 08:16:32;;;;;;;8.35;0.80;;;;;;;22.35;100.00;99916.44;5049053;28;20029;-82
2022/07/25 08:18:57;;;;;;;3.72;0.98;;;;;;;22.61;100.00;99915.84;5048022;28;20025;-82
2022/07/25 08:21:23;;;;;;;3.47;0.52;;;;;;;22.34;100.00;99909.47;5049553;28;20029;-82
2022/07/25 08:23:48;;;;;;;3.25;0.50;;;;;;;23.04;100.00;99918.41;5049452;28;20032;-82
2022/07/25 08:26:14;;;;;;;5.45;0.98;;;;;;;23.18;100.00;99908.56;5049172;28;20029;-82
2022/07/25 08:28:40;;;;;;;1.55;0.25;;;;;;;22.58;100.00;99922.41;5048978;28;20029;-82
2022/07/25 08:31:06;;;;;;;3.20;0.50;;;;;;;22.51;100.00;99923.38;5049022;28;20033;-81
2022/07/25 08:33:31;;;;;;;2.13;0.50;;;;;;;22.67;100.00;99915.06;5048928;28;20081;-81
2022/07/25 08:36:00;;;;;;;1.48;0.17;;;;;;;22.63;100.00;99912.94;5049100;28;20097;-81
2022/07/25 08:38:27;;;;;;;0.88;0.15;;;;;;;22.21;100.00;99914.66;5048953;28;20025;-81
2022/07/25 08:40:54;;;;;;;2.88;0.40;;;;;;;22.49;100.00;99912.03;5048985;28;20025;-81
2022/07/25 08:43:20;;;;;;;1.40;0.40;;;;;;;22.69;100.00;99918.38;5049111;28;20033;-82
2022/07/25 08:45:53;;;;;;;1.80;0.40;;;;;;;22.96;100.00;99918.53;5048835;28;20032;-81
2022/07/25 08:48:21;;;;;;;1.75;0.40;;;;;;;22.73;100.00;99916.13;5048973;28;20032;-81
2022/07/25 08:50:47;;;;;;;2.75;0.47;;;;;;;22.84;100.00;99930.81;5048763;28;20116;-82
2022/07/25 08:53:16;;;;;;;3.42;0.60;;;;;;;22.37;100.00;99920.59;5048648;28;20073;-82
2022/07/25 08:55:43;;;;;;;4.65;0.90;;;;;;;22.04;100.00;99930.97;5048762;28;20033;-82
2022/07/25 08:58:10;;;;;;;6.78;0.45;;;;;;;22.32;100.00;99923.00;5048785;28;20108;-82
2022/07/25 09:00:36;;;;;;;3.60;0.63;;;;;;;22.23;100.00;99934.00;5047420;28;20386;-82
2022/07/25 09:03:02;;;;;;;3.80;0.57;;;;;;;22.20;100.00;99931.72;5048908;28;20025;-82
2022/07/25 09:05:30;;;;;;;5.13;0.85;;;;;;;21.94;100.00;99931.28;5048649;28;20080;-82
2022/07/25 09:08:05;;;;;;;4.70;0.85;;;;;;;22.33;100.00;99935.38;5048498;28;20021;-82
2022/07/25 09:10:31;;;;;;;10.40;1.35;;;;;;;22.22;100.00;99929.69;5048501;28;20036;-82
2022/07/25 09:13:03;;;;;;;3.85;0.80;;;;;;;23.04;100.00;99931.78;5048548;28;20017;-82
2022/07/25 09:15:34;;;;;;;5.95;1.15;;;;;;;24.33;100.00;99933.66;5048480;28;20048;-82
2022/07/25 09:18:08;;;;;;;2.80;0.63;;;;;;;26.10;94.14;99930.88;5048390;28;20074;-82
2022/07/25 09:20:49;;;;;;;5.80;1.17;;;;;;;26.06;93.78;99929.66;5048471;28;20258;-82
2022/07/25 09:23:27;;;;;;;2.45;0.65;;;;;;;26.79;90.94;99930.97;5049161;28;20025;-82
2022/07/25 09:26:00;;;;;;;5.00;1.10;;;;;;;28.04;81.96;99924.28;5052115;28;20055;-82
2022/07/25 09:28:26;;;;;;;7.13;0.90;;;;;;;26.73;87.90;99934.53;5052018;28;20114;-82
2022/07/25 09:30:53;;;;;;;8.82;1.48;;;;;;;25.84;87.86;99933.72;5051923;28;20470;-82
2022/07/25 09:33:20;;;;;;;5.97;1.45;;;;;;;25.41;91.81;99934.34;5051854;28;20033;-82
2022/07/25 09:35:45;;;;;;;4.55;0.80;;;;;;;25.76;91.28;99939.38;5051656;28;20037;-82
2022/07/25 09:38:13;;;;;;;7.70;1.15;;;;;;;25.83;91.13;99940.13;5050603;28;20031;-82
2022/07/25 09:40:40;;;;;;;6.07;1.25;;;;;;;26.44;89.30;99950.31;5051678;28;20057;-82
2022/07/25 09:43:06;;;;;;;8.82;1.52;;;;;;;27.07;88.74;99951.19;5051839;28;20065;-82
2022/07/25 09:45:31;;;;;;;6.63;0.95;;;;;;;27.06;85.88;99944.16;5051785;28;20029;-82
2022/07/25 09:48:02;;;;;;;5.30;1.48;;;;;;;26.83;84.97;99956.41;5051857;28;20546;-82
2022/07/25 09:50:30;;;;;;;4.93;1.60;;;;;;;27.03;83.23;99950.00;5051491;28;20049;-82
2022/07/25 09:52:59;;;;;;;6.88;1.50;;;;;;;26.38;85.03;99961.94;5051727;28;20044;-82
2022/07/25 09:55:25;;;;;;;7.10;1.27;;;;;;;27.44;82.96;99962.00;5051789;28;20025;-82
2022/07/25 09:57:53;;;;;;;7.93;1.55;;;;;;;25.99;86.45;99965.72;5051686;28;20035;-82
2022/07/25 10:00:22;;;;;;;5.28;1.05;;;;;;;25.33;87.95;99962.28;5051436;28;20097;-82
2022/07/25 10:02:57;;;;;;;5.55;1.30;;;;;;;28.11;84.74;99961.16;5051398;28;20033;-82
2022/07/25 10:05:35;;;;;;;9.55;1.20;;;;;;;27.85;78.52;99957.75;5051556;28;20115;-82
2022/07/25 10:08:06;;;;;;;4.82;1.10;;;;;;;30.53;69.79;99968.72;5051566;28;20021;-83
2022/07/25 10:10:38;;;;;;;6.50;1.52;;;;;;;31.95;62.78;99970.88;5051321;28;20033;-82
2022/07/25 10:13:12;;;;;;;5.18;1.25;;;;;;;32.56;55.00;99980.66;5050026;28;20039;-82
2022/07/25 10:15:49;;;;;;;5.93;1.65;;;;;;;33.77;48.87;99978.06;5049867;28;20028;-83
2022/07/25 10:18:17;;;;;;;5.57;1.33;;;;;;;33.30;48.54;99985.22;5049722;28;20116;-83
2022/07/25 10:20:44;;;;;;;3.42;0.90;;;;;;;31.58;52.33;99985.13;5051040;28;20493;-83
2022/07/25 10:23:20;;;;;;;5.38;1.20;;;;;;;33.44;47.87;99984.75;5049724;28;20033;-83
2022/07/25 10:25:45;;;;;;;4.88;1.60;;;;;;;32.29;48.20;99996.97;5051052;28;20076;-83
2022/07/25 10:28:17;;;;;;;5.07;1.42;;;;;;;32.05;49.91;99993.78;5050965;28;20486;-83
2022/07/25 10:30:42;;;;;;;4.13;1.08;;;;;;;32.69;48.39;99991.09;5050928;28;20542;-83
2022/07/25 10:33:14;;;;;;;3.45;1.08;;;;;;;31.48;48.91;99995.00;5050793;28;20037;-83
2022/07/25 10:35:40;;;;;;;4.95;1.17;;;;;;;29.81;52.28;100005.31;5049845;28;20029;-83
2022/07/25 10:38:05;;;;;;;2.75;1.20;;;;;;;28.93;53.68;100011.75;5050894;28;20129;-83
2022/07/25 10:40:38;;;;;;;6.63;1.20;;;;;;;29.14;56.61;100013.91;5050634;28;20056;-83
2022/07/25 10:43:08;;;;;;;4.75;1.27;;;;;;;28.21;58.16;100015.38;5050696;28;20044;-83
2022/07/25 10:45:56;;;;;;;10.80;1.42;;;;;;;28.36;60.42;100023.88;5050782;28;20363;-83
2022/07/25 10:48:26;;;;;;;5.20;0.98;;;;;;;28.84;59.31;100017.53;5050772;28;20363;-82
2022/07/25 10:51:04;;;;;;;5.45;1.13;;;;;;;28.13;60.94;100018.41;5050537;28;20048;-81
2022/07/25 10:53:34;;;;;;;4.35;1.00;;;;;;;27.88;60.68;100016.66;5050544;28;20021;-83
2022/07/25 10:56:28;;;;;;;7.93;1.80;;;;;;;27.36;63.68;100024.31;5050758;28;20044;-83
2022/07/25 10:58:59;;;;;;;3.25;0.90;;;;;;;25.97;66.50;100026.97;5059126;28;20037;-83
2022/07/25 11:01:32;;;;;;;4.82;1.00;;;;;;;25.37;73.79;100033.38;5050467;28;20028;-83
2022/07/25 11:04:03;;;;;;;2.75;0.95;;;;;;;25.46;74.15;100025.94;5050635;28;20497;-83
2022/07/25 11:06:38;;;;;;;3.10;1.15;;;;;;;25.76;73.85;100030.78;5050585;28;20414;-83
2022/07/25 11:09:13;;;;;;;6.32;0.90;;;;;;;25.79;73.40;100038.41;5050420;28;20036;-83
2022/07/25 11:11:42;;;;;;;6.00;1.23;;;;;;;25.77;74.00;100048.56;5050217;28;20080;-83
2022/07/25 11:14:32;;;;;;;2.38;0.85;;;;;;;26.24;73.28;100051.88;5050362;28;20032;-83
2022/07/25 11:17:17;;;;;;;6.20;1.10;;;;;;;27.09;71.11;100046.94;5050320;28;20048;-83
2022/07/25 11:19:44;;;;;;;4.85;1.00;;;;;;;28.32;67.31;100049.69;5050126;28;20021;-83
2022/07/25 11:22:10;;;;;;;6.28;1.20;;;;;;;29.74;62.54;100034.44;5050203;28;20104;-83
2022/07/25 11:24:44;;;;;;;4.63;1.02;;;;;;;29.38;61.09;100036.31;5050135;28;20032;-83
2022/07/25 11:27:13;;;;;;;6.68;1.42;;;;;;;29.26;60.59;100049.88;5050007;28;20052;-83